Amanda — WDF2362 — position and weather

sailwx.info

Track history (hours):
 
Tides and Currents Weather Stations Pressure Air Temp Water Temp Dewpoint Dewpoint Depression Visibility Wind Speed Wind Dir Waves Ship Positions

Amanda

Owner: Enterprise Marine Services, LLC, San Antonio, TX. More information available from US FCC via Universal Licensing System and Coast Guard Vessel Documentation Center.

Last reported at 2017-Oct-10 11:06 UTC. Time now 2017-Oct-22 19:14 UTC.
Position N 29°33' W 090°26'.
Warning: this ship's position is 12 days out of date.

Length 21 m; draft 3 m.

Type: Towing. MMSI: 367003230.

Date/timePositionNaut miles runAvg speedWind from/ knotsBaromVisibWave heightAir tempDewpointWater temp
2017-Oct-10 11:06N 29°33' W 090°26'1 6.3
2017-Oct-10 10:59N 29°33' W 090°27'3 6.3
2017-Oct-10 10:31N 29°34' W 090°30'3 5.7
2017-Oct-10 10:00N 29°34' W 090°34'2 4.9
2017-Oct-10 09:31N 29°35' W 090°36'3 5.2
2017-Oct-10 09:01N 29°36' W 090°39'2 4.9
2017-Oct-10 08:31N 29°37' W 090°42'1 2.9
2017-Oct-10 08:00N 29°36' W 090°43'2 3.5
2017-Oct-10 07:30N 29°34' W 090°43'1 1.7
2017-Oct-10 07:01N 29°34' W 090°44'0 0.1
2017-Oct-10 06:31N 29°34' W 090°44'0 0.7
2017-Oct-10 06:00N 29°34' W 090°45'2 4.3
2017-Oct-10 05:30N 29°32' W 090°46'3 6.2
2017-Oct-10 05:01N 29°32' W 090°50'3 5.9
2017-Oct-10 04:29N 29°33' W 090°54'4 6.0
2017-Oct-10 03:48N 29°35' W 090°58'2 5.8
2017-Oct-10 03:30N 29°36' W 090°58'55 4.6
2017-Oct-09 15:31N 29°50' W 092°00'0 6.3
2017-Oct-09 15:30N 29°50' W 092°00'3 5.7
2017-Oct-09 15:00N 29°49' W 092°03'3 5.9
2017-Oct-09 14:30N 29°48' W 092°06'3 5.7
2017-Oct-09 14:00N 29°47' W 092°10'2 5.0
2017-Oct-09 13:31N 29°47' W 092°12'0 0.7
2017-Oct-09 13:00N 29°47' W 092°13'2 4.0
2017-Oct-09 12:31N 29°48' W 092°15'3 5.6
2017-Oct-09 12:00N 29°50' W 092°18'41 5.0
2017-Oct-09 03:45N 29°56' W 093°05'2 5.0
2017-Oct-09 03:26N 29°56' W 093°07'2 5.4
2017-Oct-09 03:01N 29°56' W 093°09'2 4.7
2017-Oct-09 02:31N 29°58' W 093°11'3 5.3
2017-Oct-09 02:01N 29°60' W 093°13'3 5.1
2017-Oct-09 01:31N 30°02' W 093°15'2 5.0
2017-Oct-09 01:01N 30°04' W 093°16'2 3.5
2017-Oct-09 00:30N 30°05' W 093°18'1 1.4
2017-Oct-09 00:00N 30°06' W 093°18'1 1.2
2017-Oct-08 23:31N 30°06' W 093°19'0 0.1
2017-Oct-08 23:01N 30°06' W 093°19'1 2.8
2017-Oct-08 22:31N 30°05' W 093°20'2 4.9
2017-Oct-08 22:01N 30°04' W 093°22'3 5.5
2017-Oct-08 21:31N 30°04' W 093°25'3 6.2
2017-Oct-08 21:00N 30°04' W 093°29'3 6.1
2017-Oct-08 20:31N 30°04' W 093°32'4 5.8
2017-Oct-08 19:54N 30°04' W 093°37'  
2017-Oct-06 13:18N 29°57' W 093°52'0 0.0
2017-Oct-06 13:00N 29°57' W 093°52'0 0.0
2017-Oct-06 12:24N 29°57' W 093°52'0 0.0
2017-Oct-06 11:58N 29°57' W 093°52'0 0.0
2017-Oct-06 11:18N 29°57' W 093°52'0 0.0
2017-Oct-06 11:00N 29°57' W 093°52'0 0.0
2017-Oct-06 10:22N 29°57' W 093°52'0 0.0
2017-Oct-06 09:46N 29°57' W 093°52'0 0.0
2017-Oct-06 09:30N 29°57' W 093°52'0 0.0
2017-Oct-06 09:00N 29°57' W 093°52'0 0.0
2017-Oct-06 08:30N 29°57' W 093°52'11 0.5
2017-Oct-05 10:46N 30°03' W 093°42'1 4.6
2017-Oct-05 10:30N 30°04' W 093°40'4 4.2
2017-Oct-05 09:30N 30°04' W 093°35'3 4.5
2017-Oct-05 08:52N 30°04' W 093°32'2 4.5
2017-Oct-05 08:30N 30°04' W 093°30'2 4.6
2017-Oct-05 08:00N 30°04' W 093°28'2 4.6
2017-Oct-05 07:30N 30°04' W 093°25'2 4.4
2017-Oct-05 07:00N 30°04' W 093°22'2 3.2
2017-Oct-05 06:30N 30°04' W 093°21'2 3.2
2017-Oct-05 06:00N 30°05' W 093°20'1 1.8
2017-Oct-05 05:30N 30°06' W 093°19'0 0.1
2017-Oct-05 05:00N 30°06' W 093°19'0 0.0
2017-Oct-05 04:30N 30°06' W 093°19'0 0.0
2017-Oct-05 04:00N 30°06' W 093°19'0 0.0
2017-Oct-05 03:30N 30°06' W 093°19'0 0.0
2017-Oct-05 03:00N 30°06' W 093°19'1 1.2
2017-Oct-05 02:30N 30°06' W 093°19'2 4.1
2017-Oct-05 02:00N 30°08' W 093°20'1 1.6
2017-Oct-05 01:30N 30°08' W 093°19'0 0.2
2017-Oct-05 01:00N 30°08' W 093°19'0 0.0
2017-Oct-05 00:30N 30°08' W 093°19'0 0.0
2017-Oct-05 00:00N 30°08' W 093°19'0 0.0
2017-Oct-04 23:30N 30°08' W 093°19'0 0.0
2017-Oct-04 23:00N 30°08' W 093°19'0 0.0
2017-Oct-04 22:30N 30°08' W 093°19'0 0.0
2017-Oct-04 22:00N 30°08' W 093°19'0 0.0
2017-Oct-04 21:30N 30°08' W 093°19'0 0.0
2017-Oct-04 21:00N 30°08' W 093°19'0 0.0
2017-Oct-04 20:30N 30°08' W 093°19'0 0.0
2017-Oct-04 20:00N 30°08' W 093°19'0 0.0
2017-Oct-04 19:30N 30°08' W 093°19'0 0.0
2017-Oct-04 19:00N 30°08' W 093°19'0 0.0
2017-Oct-04 18:30N 30°08' W 093°19'0 0.0
2017-Oct-04 18:00N 30°08' W 093°19'0 0.0
2017-Oct-04 17:30N 30°08' W 093°19'0 0.0
2017-Oct-04 17:00N 30°08' W 093°19'0 0.0
2017-Oct-04 16:30N 30°08' W 093°19'0 0.0
2017-Oct-04 16:00N 30°08' W 093°19'0 0.0
2017-Oct-04 15:30N 30°08' W 093°19'0 0.0
2017-Oct-04 15:00N 30°08' W 093°19'0 0.0
2017-Oct-04 14:30N 30°08' W 093°19'0 0.0
2017-Oct-04 14:00N 30°08' W 093°19'0 0.0
2017-Oct-04 13:30N 30°08' W 093°19'0 0.0
2017-Oct-04 13:00N 30°08' W 093°19'0 0.0
2017-Oct-04 12:30N 30°08' W 093°19'0 0.0
2017-Oct-04 12:00N 30°08' W 093°19'0 0.0
2017-Oct-04 11:30N 30°08' W 093°19'0 0.0
2017-Oct-04 11:00N 30°08' W 093°19'0 0.0
2017-Oct-04 10:30N 30°08' W 093°19'0 0.0
2017-Oct-04 10:00N 30°08' W 093°19'0 0.0
2017-Oct-04 09:30N 30°08' W 093°19'0 0.0
2017-Oct-04 09:00N 30°08' W 093°19'0 0.0
2017-Oct-04 08:30N 30°08' W 093°19'0 0.0
2017-Oct-04 08:00N 30°08' W 093°19'0 0.0
2017-Oct-04 07:30N 30°08' W 093°19'0 0.0
2017-Oct-04 07:00N 30°08' W 093°19'0 0.1
2017-Oct-04 06:30N 30°08' W 093°19'1 1.2
2017-Oct-04 06:00N 30°08' W 093°20'2 4.9
2017-Oct-04 05:30N 30°05' W 093°20'2 4.5
2017-Oct-04 05:00N 30°04' W 093°21'2 3.7
2017-Oct-04 04:30N 30°04' W 093°23'2 3.9
2017-Oct-04 04:00N 30°04' W 093°26'2 3.8
2017-Oct-04 03:30N 30°04' W 093°28'2 3.9
2017-Oct-04 03:00N 30°04' W 093°30'2 3.9
2017-Oct-04 02:30N 30°04' W 093°32'  
Track history (hours):
 
Tides and Currents Weather Stations Pressure Air Temp Water Temp Dewpoint Dewpoint Depression Visibility Wind Speed Wind Dir Waves Ship Positions

Amanda

Owner: Enterprise Marine Services, LLC, San Antonio, TX. More information available from US FCC via Universal Licensing System and Coast Guard Vessel Documentation Center.

Last reported at 2017-Oct-10 11:06 UTC. Time now 2017-Oct-22 19:14 UTC.
Position N 29°33' W 090°26'.
Warning: this ship's position is 12 days out of date.

Length 21 m; draft 3 m.

Type: Towing. MMSI: 367003230.

Date/timePositionNaut miles runAvg speedWind from/ knotsBaromVisibWave heightAir tempDewpointWater temp
2017-Oct-10 11:06N 29°33' W 090°26'1 6.3
2017-Oct-10 10:59N 29°33' W 090°27'3 6.3
2017-Oct-10 10:31N 29°34' W 090°30'3 5.7
2017-Oct-10 10:00N 29°34' W 090°34'2 4.9
2017-Oct-10 09:31N 29°35' W 090°36'3 5.2
2017-Oct-10 09:01N 29°36' W 090°39'2 4.9
2017-Oct-10 08:31N 29°37' W 090°42'1 2.9
2017-Oct-10 08:00N 29°36' W 090°43'2 3.5
2017-Oct-10 07:30N 29°34' W 090°43'1 1.7
2017-Oct-10 07:01N 29°34' W 090°44'0 0.1
2017-Oct-10 06:31N 29°34' W 090°44'0 0.7
2017-Oct-10 06:00N 29°34' W 090°45'2 4.3
2017-Oct-10 05:30N 29°32' W 090°46'3 6.2
2017-Oct-10 05:01N 29°32' W 090°50'3 5.9
2017-Oct-10 04:29N 29°33' W 090°54'4 6.0
2017-Oct-10 03:48N 29°35' W 090°58'2 5.8
2017-Oct-10 03:30N 29°36' W 090°58'55 4.6
2017-Oct-09 15:31N 29°50' W 092°00'0 6.3
2017-Oct-09 15:30N 29°50' W 092°00'3 5.7
2017-Oct-09 15:00N 29°49' W 092°03'3 5.9
2017-Oct-09 14:30N 29°48' W 092°06'3 5.7
2017-Oct-09 14:00N 29°47' W 092°10'2 5.0
2017-Oct-09 13:31N 29°47' W 092°12'0 0.7
2017-Oct-09 13:00N 29°47' W 092°13'2 4.0
2017-Oct-09 12:31N 29°48' W 092°15'3 5.6
2017-Oct-09 12:00N 29°50' W 092°18'41 5.0
2017-Oct-09 03:45N 29°56' W 093°05'2 5.0
2017-Oct-09 03:26N 29°56' W 093°07'2 5.4
2017-Oct-09 03:01N 29°56' W 093°09'2 4.7
2017-Oct-09 02:31N 29°58' W 093°11'3 5.3
2017-Oct-09 02:01N 29°60' W 093°13'3 5.1
2017-Oct-09 01:31N 30°02' W 093°15'2 5.0
2017-Oct-09 01:01N 30°04' W 093°16'2 3.5
2017-Oct-09 00:30N 30°05' W 093°18'1 1.4
2017-Oct-09 00:00N 30°06' W 093°18'1 1.2
2017-Oct-08 23:31N 30°06' W 093°19'0 0.1
2017-Oct-08 23:01N 30°06' W 093°19'1 2.8
2017-Oct-08 22:31N 30°05' W 093°20'2 4.9
2017-Oct-08 22:01N 30°04' W 093°22'3 5.5
2017-Oct-08 21:31N 30°04' W 093°25'3 6.2
2017-Oct-08 21:00N 30°04' W 093°29'3 6.1
2017-Oct-08 20:31N 30°04' W 093°32'4 5.8
2017-Oct-08 19:54N 30°04' W 093°37'  
2017-Oct-06 13:18N 29°57' W 093°52'0 0.0
2017-Oct-06 13:00N 29°57' W 093°52'0 0.0
2017-Oct-06 12:24N 29°57' W 093°52'0 0.0
2017-Oct-06 11:58N 29°57' W 093°52'0 0.0
2017-Oct-06 11:18N 29°57' W 093°52'0 0.0
2017-Oct-06 11:00N 29°57' W 093°52'0 0.0
2017-Oct-06 10:22N 29°57' W 093°52'0 0.0
2017-Oct-06 09:46N 29°57' W 093°52'0 0.0
2017-Oct-06 09:30N 29°57' W 093°52'0 0.0
2017-Oct-06 09:00N 29°57' W 093°52'0 0.0
2017-Oct-06 08:30N 29°57' W 093°52'11 0.5
2017-Oct-05 10:46N 30°03' W 093°42'1 4.6
2017-Oct-05 10:30N 30°04' W 093°40'4 4.2
2017-Oct-05 09:30N 30°04' W 093°35'3 4.5
2017-Oct-05 08:52N 30°04' W 093°32'2 4.5
2017-Oct-05 08:30N 30°04' W 093°30'2 4.6
2017-Oct-05 08:00N 30°04' W 093°28'2 4.6
2017-Oct-05 07:30N 30°04' W 093°25'2 4.4
2017-Oct-05 07:00N 30°04' W 093°22'2 3.2
2017-Oct-05 06:30N 30°04' W 093°21'2 3.2
2017-Oct-05 06:00N 30°05' W 093°20'1 1.8
2017-Oct-05 05:30N 30°06' W 093°19'0 0.1
2017-Oct-05 05:00N 30°06' W 093°19'0 0.0
2017-Oct-05 04:30N 30°06' W 093°19'0 0.0
2017-Oct-05 04:00N 30°06' W 093°19'0 0.0
2017-Oct-05 03:30N 30°06' W 093°19'0 0.0
2017-Oct-05 03:00N 30°06' W 093°19'1 1.2
2017-Oct-05 02:30N 30°06' W 093°19'2 4.1
2017-Oct-05 02:00N 30°08' W 093°20'1 1.6
2017-Oct-05 01:30N 30°08' W 093°19'0 0.2
2017-Oct-05 01:00N 30°08' W 093°19'0 0.0
2017-Oct-05 00:30N 30°08' W 093°19'0 0.0
2017-Oct-05 00:00N 30°08' W 093°19'0 0.0
2017-Oct-04 23:30N 30°08' W 093°19'0 0.0
2017-Oct-04 23:00N 30°08' W 093°19'0 0.0
2017-Oct-04 22:30N 30°08' W 093°19'0 0.0
2017-Oct-04 22:00N 30°08' W 093°19'0 0.0
2017-Oct-04 21:30N 30°08' W 093°19'0 0.0
2017-Oct-04 21:00N 30°08' W 093°19'0 0.0
2017-Oct-04 20:30N 30°08' W 093°19'0 0.0
2017-Oct-04 20:00N 30°08' W 093°19'0 0.0
2017-Oct-04 19:30N 30°08' W 093°19'0 0.0
2017-Oct-04 19:00N 30°08' W 093°19'0 0.0
2017-Oct-04 18:30N 30°08' W 093°19'0 0.0
2017-Oct-04 18:00N 30°08' W 093°19'0 0.0
2017-Oct-04 17:30N 30°08' W 093°19'0 0.0
2017-Oct-04 17:00N 30°08' W 093°19'0 0.0
2017-Oct-04 16:30N 30°08' W 093°19'0 0.0
2017-Oct-04 16:00N 30°08' W 093°19'0 0.0
2017-Oct-04 15:30N 30°08' W 093°19'0 0.0
2017-Oct-04 15:00N 30°08' W 093°19'0 0.0
2017-Oct-04 14:30N 30°08' W 093°19'0 0.0
2017-Oct-04 14:00N 30°08' W 093°19'0 0.0
2017-Oct-04 13:30N 30°08' W 093°19'0 0.0
2017-Oct-04 13:00N 30°08' W 093°19'0 0.0
2017-Oct-04 12:30N 30°08' W 093°19'0 0.0
2017-Oct-04 12:00N 30°08' W 093°19'0 0.0
2017-Oct-04 11:30N 30°08' W 093°19'0 0.0
2017-Oct-04 11:00N 30°08' W 093°19'0 0.0
2017-Oct-04 10:30N 30°08' W 093°19'0 0.0
2017-Oct-04 10:00N 30°08' W 093°19'0 0.0
2017-Oct-04 09:30N 30°08' W 093°19'0 0.0
2017-Oct-04 09:00N 30°08' W 093°19'0 0.0
2017-Oct-04 08:30N 30°08' W 093°19'0 0.0
2017-Oct-04 08:00N 30°08' W 093°19'0 0.0
2017-Oct-04 07:30N 30°08' W 093°19'0 0.0
2017-Oct-04 07:00N 30°08' W 093°19'0 0.1
2017-Oct-04 06:30N 30°08' W 093°19'1 1.2
2017-Oct-04 06:00N 30°08' W 093°20'2 4.9
2017-Oct-04 05:30N 30°05' W 093°20'2 4.5
2017-Oct-04 05:00N 30°04' W 093°21'2 3.7
2017-Oct-04 04:30N 30°04' W 093°23'2 3.9
2017-Oct-04 04:00N 30°04' W 093°26'2 3.8
2017-Oct-04 03:30N 30°04' W 093°28'2 3.9
2017-Oct-04 03:00N 30°04' W 093°30'2 3.9
2017-Oct-04 02:30N 30°04' W 093°32'  

Dump ship's entire track history